Hiler, New York
Current Conditions -  °F | °C
As of 12:54 AM on Sunday 26 Oct 2014 (Local Time) from KBUF Reporting Station
Few Clouds Few Clouds  
Wind Chill: 50°   Ceiling: Unl
Heat Index: 50°   Visibility: 10mi
Dew Point: 38°   Wind: 8mph
Humidity: 63%   Direction: 260°W
Pressure: 29.67"   Gusts: NA
Location:  42.9735°N, 78.8457°W
Report Text: KBUF 260454Z 26007KT 10SM FEW050 FEW060 10/03 A2967 RMK AO2 SLP047 T01000033 401670094
Loading
Personal Weather Stations






























Interactive Weather Map
Tropical Storm Tracking
New forecast layout! Learn more

10-Day Weather Forecast

Advertisements
Track Severe Weather on mobile